createdAt,value
2022-10-18T00:01:36.817Z,24.80
2022-10-18T00:04:05.366Z,23.98
2022-10-18T00:06:33.834Z,22.17
2022-10-18T00:09:01.875Z,23.17
2022-10-18T00:11:30.891Z,22.48
2022-10-18T00:14:01.310Z,23.15
2022-10-18T00:16:29.622Z,23.40
2022-10-18T00:18:58.426Z,22.10
2022-10-18T00:21:27.650Z,22.10
2022-10-18T00:23:56.232Z,23.20
2022-10-18T00:26:28.928Z,23.90
2022-10-18T00:29:00.252Z,24.13
2022-10-18T00:31:32.001Z,24.88
2022-10-18T00:34:02.629Z,22.90
2022-10-18T00:36:34.447Z,23.15
2022-10-18T00:39:06.776Z,23.02
2022-10-18T00:41:38.999Z,23.05
2022-10-18T00:44:28.633Z,22.00
2022-10-18T00:47:02.024Z,23.65
2022-10-18T00:49:33.463Z,24.20
2022-10-18T00:52:06.089Z,24.38
2022-10-18T00:54:37.324Z,23.45
2022-10-18T00:57:08.643Z,23.52
2022-10-18T00:59:39.566Z,24.17
2022-10-18T01:02:09.732Z,23.30
2022-10-18T01:04:39.390Z,23.52
2022-10-18T01:07:17.292Z,23.35
2022-10-18T01:09:52.945Z,22.92
2022-10-18T01:12:27.214Z,24.85
2022-10-18T01:15:01.789Z,25.83
2022-10-18T01:17:40.002Z,25.27
2022-10-18T01:20:47.559Z,24.92
2022-10-18T01:23:21.573Z,23.00
2022-10-18T01:25:59.516Z,24.40
2022-10-18T01:28:44.945Z,22.83
2022-10-18T01:31:18.358Z,23.80
2022-10-18T01:33:52.124Z,22.10
2022-10-18T01:36:26.667Z,22.10
2022-10-18T01:38:58.534Z,23.25
2022-10-18T01:41:29.611Z,22.85
2022-10-18T01:44:01.166Z,22.93
2022-10-18T01:46:32.129Z,21.83
2022-10-18T01:49:00.958Z,23.13
2022-10-18T01:51:31.577Z,22.35
2022-10-18T01:54:00.241Z,21.33
2022-10-18T01:56:39.616Z,21.50
2022-10-18T01:59:21.300Z,22.08
2022-10-18T02:02:01.178Z,22.50
2022-10-18T02:04:35.586Z,21.00
2022-10-18T02:07:12.705Z,20.92
2022-10-18T02:09:50.576Z,21.02
2022-10-18T02:12:21.754Z,20.52
2022-10-18T02:14:52.067Z,22.23
2022-10-18T02:17:28.489Z,21.05
2022-10-18T02:19:58.086Z,22.65
2022-10-18T02:22:29.916Z,19.98
2022-10-18T02:27:27.978Z,20.63
2022-10-18T02:30:00.291Z,20.38
2022-10-18T02:32:41.403Z,20.40
2022-10-18T02:35:15.271Z,22.15
2022-10-18T02:37:44.584Z,21.85
2022-10-18T02:40:12.931Z,21.98
2022-10-18T02:42:47.238Z,21.77
2022-10-18T02:45:16.678Z,21.60
2022-10-18T02:47:49.295Z,22.15
2022-10-18T02:50:17.602Z,21.48
2022-10-18T02:52:48.588Z,21.30
2022-10-18T02:55:23.349Z,20.83
2022-10-18T02:57:51.959Z,22.85
2022-10-18T03:00:23.398Z,22.13
2022-10-18T03:02:57.799Z,22.02
2022-10-18T03:05:29.085Z,22.67
2022-10-18T03:07:58.590Z,22.98
2022-10-18T03:10:29.796Z,23.05
2022-10-18T03:12:58.751Z,23.35
2022-10-18T03:15:31.133Z,21.25
2022-10-18T03:18:01.150Z,21.70
2022-10-18T03:20:31.989Z,21.52
2022-10-18T03:23:01.716Z,20.98
2022-10-18T03:25:30.250Z,20.70
2022-10-18T03:27:59.040Z,21.02
2022-10-18T03:30:29.719Z,19.77
2022-10-18T03:33:04.895Z,19.95
2022-10-18T03:35:33.184Z,19.98
2022-10-18T03:38:04.013Z,21.08
2022-10-18T03:40:32.943Z,23.48
2022-10-18T03:43:01.615Z,30.08
2022-10-18T03:45:31.422Z,27.77
2022-10-18T03:48:03.215Z,25.17
2022-10-18T03:50:33.508Z,25.17
2022-10-18T03:53:04.725Z,33.08
2022-10-18T03:55:33.168Z,36.00
2022-10-18T03:58:02.019Z,37.10
2022-10-18T04:00:30.795Z,35.03
2022-10-18T04:02:59.444Z,35.28
2022-10-18T04:05:28.600Z,33.92
2022-10-18T04:07:59.859Z,37.08
2022-10-18T04:10:31.979Z,36.08
2022-10-18T04:13:02.413Z,35.35
2022-10-18T04:15:32.367Z,34.63
2022-10-18T04:18:00.950Z,32.97
2022-10-18T04:20:30.975Z,33.67
2022-10-18T04:23:00.839Z,35.85
2022-10-18T04:25:29.651Z,38.03
2022-10-18T04:27:58.269Z,36.03
2022-10-18T04:30:26.479Z,35.00
2022-10-18T04:32:54.533Z,37.00
2022-10-18T04:35:24.983Z,34.28
2022-10-18T04:37:53.315Z,33.50
2022-10-18T04:40:23.820Z,33.42
2022-10-18T04:42:53.519Z,32.72
2022-10-18T04:45:26.187Z,33.50
2022-10-18T04:48:01.196Z,32.30
2022-10-18T04:50:30.240Z,30.35
2022-10-18T04:52:58.587Z,31.38
2022-10-18T04:55:31.386Z,28.58
2022-10-18T04:58:03.590Z,32.15
2022-10-18T05:00:39.942Z,32.65
2022-10-18T05:03:09.217Z,32.50
2022-10-18T05:06:00.135Z,33.42
2022-10-18T05:08:26.811Z,35.88
2022-10-18T05:11:05.809Z,38.30
2022-10-18T05:13:34.561Z,39.58
2022-10-18T05:16:04.256Z,41.30
2022-10-18T05:18:32.618Z,41.95
2022-10-18T05:21:03.518Z,43.67
2022-10-18T05:23:31.798Z,43.63
2022-10-18T05:26:05.328Z,41.35
2022-10-18T05:28:40.405Z,38.92
2022-10-18T05:31:10.241Z,36.95
2022-10-18T05:33:41.881Z,33.92
2022-10-18T05:36:12.500Z,35.35
2022-10-18T05:38:43.522Z,36.83
2022-10-18T05:41:13.995Z,35.00
2022-10-18T05:43:47.820Z,31.95
2022-10-18T05:46:22.158Z,30.13
2022-10-18T05:48:54.315Z,30.40
2022-10-18T05:53:50.555Z,29.52
2022-10-18T05:56:22.751Z,28.65
2022-10-18T05:58:54.775Z,26.10
2022-10-18T06:01:25.719Z,26.20
2022-10-18T06:04:01.016Z,26.40
2022-10-18T06:06:33.730Z,26.02
2022-10-18T06:09:04.747Z,26.40
2022-10-18T06:11:39.029Z,33.42
2022-10-18T06:14:15.067Z,32.88
2022-10-18T06:16:43.689Z,30.50
2022-10-18T06:19:18.888Z,31.80
2022-10-18T06:21:49.156Z,30.00
2022-10-18T06:24:23.836Z,29.50
2022-10-18T06:26:54.961Z,30.08
2022-10-18T06:29:23.367Z,30.13
2022-10-18T06:31:53.468Z,30.55
2022-10-18T06:34:23.778Z,31.13
2022-10-18T06:36:56.393Z,31.02
2022-10-18T06:39:26.784Z,30.98
2022-10-18T06:42:00.512Z,35.22
2022-10-18T06:44:35.586Z,34.15
2022-10-18T06:47:07.107Z,32.63
2022-10-18T06:49:39.810Z,33.05
2022-10-18T06:52:11.647Z,31.23
2022-10-18T06:54:45.212Z,30.85
2022-10-18T06:57:16.563Z,32.67
2022-10-18T06:59:47.894Z,31.77
2022-10-18T07:02:20.973Z,31.67
2022-10-18T07:04:49.478Z,32.47
2022-10-18T07:07:18.178Z,33.05
2022-10-18T07:09:48.335Z,31.73
2022-10-18T07:12:20.681Z,30.98
2022-10-18T07:14:51.663Z,31.13
2022-10-18T07:17:20.771Z,30.37
2022-10-18T07:19:51.345Z,26.83
2022-10-18T07:22:25.004Z,27.42
2022-10-18T07:25:01.995Z,27.35
2022-10-18T07:27:37.566Z,25.30
2022-10-18T07:30:11.289Z,25.02
2022-10-18T07:32:42.196Z,25.67
2022-10-18T07:35:13.777Z,20.23
2022-10-18T07:37:43.584Z,18.70
2022-10-18T07:40:14.957Z,17.63
2022-10-18T07:42:44.355Z,15.27
2022-10-18T07:45:16.695Z,14.52
2022-10-18T07:47:45.551Z,14.73
2022-10-18T07:50:13.712Z,14.70
2022-10-18T07:52:43.475Z,14.90
2022-10-18T07:55:17.275Z,14.82
2022-10-18T07:57:51.583Z,13.63
2022-10-18T08:00:22.272Z,13.10
2022-10-18T08:02:59.324Z,13.25
2022-10-18T08:05:29.187Z,13.45
2022-10-18T08:07:57.883Z,12.80
2022-10-18T08:10:32.263Z,12.63
2022-10-18T08:13:05.527Z,12.90
2022-10-18T08:15:35.060Z,11.75
2022-10-18T08:18:11.624Z,11.45
2022-10-18T08:20:48.204Z,11.38
2022-10-18T08:23:21.938Z,12.52
2022-10-18T08:25:50.237Z,12.00
2022-10-18T08:28:21.287Z,9.80
2022-10-18T08:30:53.694Z,10.90
2022-10-18T08:33:27.493Z,10.43
2022-10-18T08:35:58.434Z,10.57
2022-10-18T08:38:32.267Z,9.68
2022-10-18T08:41:04.828Z,10.15
2022-10-18T08:43:42.152Z,11.95
2022-10-18T08:46:20.467Z,10.05
2022-10-18T08:48:53.459Z,9.15
2022-10-18T08:51:35.719Z,9.23
2022-10-18T08:54:08.527Z,9.13
2022-10-18T08:56:44.536Z,8.88
2022-10-18T08:59:19.136Z,8.90
2022-10-18T09:02:12.222Z,9.30
2022-10-18T09:04:51.517Z,9.15
2022-10-18T09:07:55.524Z,10.15
2022-10-18T09:10:42.499Z,9.18
2022-10-18T09:13:37.642Z,9.10
2022-10-18T09:16:12.125Z,9.30
2022-10-18T09:18:52.882Z,9.73
2022-10-18T09:21:29.551Z,8.18
2022-10-18T09:24:06.918Z,8.43
2022-10-18T09:26:46.202Z,8.25
2022-10-18T09:29:38.837Z,8.23
2022-10-18T09:32:25.726Z,8.23
2022-10-18T09:34:58.250Z,8.30
2022-10-18T09:37:30.276Z,8.40
2022-10-18T09:40:18.166Z,8.30
2022-10-18T09:42:55.531Z,7.60
2022-10-18T09:45:29.089Z,11.93
2022-10-18T09:48:15.425Z,7.57
2022-10-18T09:50:50.691Z,7.18
2022-10-18T09:53:26.754Z,7.00
2022-10-18T09:56:01.908Z,6.88
2022-10-18T09:58:41.505Z,7.00
2022-10-18T10:01:19.153Z,7.43
2022-10-18T10:03:50.452Z,7.18
2022-10-18T10:06:27.705Z,6.68
2022-10-18T10:09:01.980Z,7.00
2022-10-18T10:11:41.941Z,6.65
2022-10-18T10:16:48.311Z,6.40
2022-10-18T10:19:30.404Z,6.43
2022-10-18T10:24:39.971Z,6.70
2022-10-18T10:27:21.510Z,6.97
2022-10-18T10:30:04.141Z,6.65
2022-10-18T10:32:51.602Z,6.35
2022-10-18T10:38:31.541Z,6.60
2022-10-18T10:41:02.926Z,6.47
2022-10-18T10:43:38.626Z,6.32
2022-10-18T10:46:13.029Z,6.00
2022-10-18T10:48:50.887Z,6.38
2022-10-18T10:51:32.773Z,5.82
2022-10-18T10:54:11.336Z,6.13
2022-10-18T10:56:54.332Z,5.88
2022-10-18T10:59:26.470Z,6.43
2022-10-18T11:02:15.211Z,6.30
2022-10-18T11:04:47.411Z,5.90
2022-10-18T11:07:25.756Z,6.20
2022-10-18T11:10:01.723Z,6.15
2022-10-18T11:12:39.071Z,6.13
2022-10-18T11:15:34.576Z,5.97
2022-10-18T11:18:17.869Z,5.80
2022-10-18T11:20:50.302Z,6.05
2022-10-18T11:23:28.892Z,5.88
2022-10-18T11:26:07.714Z,5.80
2022-10-18T11:29:02.185Z,6.18
2022-10-18T11:31:39.304Z,6.15
2022-10-18T11:34:18.676Z,6.13
2022-10-18T11:37:22.860Z,6.10
2022-10-18T11:39:59.687Z,5.75
2022-10-18T11:42:39.807Z,6.32
2022-10-18T11:45:24.678Z,6.20
2022-10-18T11:48:00.228Z,6.18
2022-10-18T11:50:37.647Z,6.20
2022-10-18T11:53:15.011Z,6.38
2022-10-18T11:55:59.856Z,6.22
2022-10-18T11:58:51.184Z,6.55
2022-10-18T12:01:28.717Z,6.60
2022-10-18T12:04:07.269Z,6.43
2022-10-18T12:06:42.320Z,5.97
2022-10-18T12:09:21.966Z,6.05
2022-10-18T12:11:56.158Z,6.40
2022-10-18T12:14:32.347Z,6.10
2022-10-18T12:17:39.881Z,6.05
2022-10-18T12:20:00.014Z,5.82
2022-10-18T12:22:38.048Z,6.22
2022-10-18T12:25:11.619Z,6.05
2022-10-18T12:27:54.932Z,5.28
2022-10-18T12:30:32.452Z,6.10
2022-10-18T12:33:26.570Z,5.60
2022-10-18T12:36:04.720Z,5.70
2022-10-18T12:38:38.130Z,5.97
2022-10-18T12:41:08.555Z,5.45
2022-10-18T12:43:41.495Z,5.40
2022-10-18T12:46:13.827Z,5.60
2022-10-18T12:48:45.533Z,5.03
2022-10-18T12:51:17.078Z,5.90
2022-10-18T12:53:48.632Z,5.28
2022-10-18T12:56:42.417Z,5.55
2022-10-18T12:59:58.310Z,6.18
2022-10-18T13:02:34.220Z,5.20
2022-10-18T13:05:52.779Z,5.28
2022-10-18T13:08:41.277Z,5.22
2022-10-18T13:11:31.698Z,5.30
2022-10-18T13:14:32.466Z,5.20
2022-10-18T13:17:07.886Z,5.10
2022-10-18T13:20:02.873Z,7.35
2022-10-18T13:22:57.386Z,4.88
2022-10-18T13:25:30.795Z,4.95
2022-10-18T13:28:06.594Z,4.90
2022-10-18T13:30:50.471Z,4.60
2022-10-18T13:33:34.320Z,5.10
2022-10-18T13:36:06.850Z,4.45
2022-10-18T13:38:43.708Z,4.32
2022-10-18T13:41:17.146Z,4.47
2022-10-18T13:44:28.492Z,4.55
2022-10-18T13:47:34.092Z,4.80
2022-10-18T13:53:20.184Z,4.40
2022-10-18T13:56:07.352Z,4.75
2022-10-18T13:59:05.879Z,4.53
2022-10-18T14:01:52.953Z,4.20
2022-10-18T14:04:43.633Z,4.50
2022-10-18T14:07:13.731Z,4.40
2022-10-18T14:09:54.950Z,4.40
2022-10-18T14:12:33.977Z,4.70
2022-10-18T14:15:09.676Z,4.43
2022-10-18T14:17:42.991Z,4.47
2022-10-18T14:20:20.590Z,6.07
2022-10-18T14:22:54.904Z,4.88
2022-10-18T14:25:36.306Z,4.78
2022-10-18T14:28:10.058Z,10.88
2022-10-18T14:30:55.620Z,4.68
2022-10-18T14:33:36.657Z,4.78
2022-10-18T14:36:15.505Z,4.90
2022-10-18T14:38:53.456Z,4.70
2022-10-18T14:41:26.166Z,4.40
2022-10-18T14:44:18.574Z,5.00
2022-10-18T14:46:51.970Z,4.57
2022-10-18T14:49:25.849Z,4.70
2022-10-18T14:51:58.917Z,4.70
2022-10-18T14:54:35.109Z,4.53
2022-10-18T14:57:08.892Z,4.70
2022-10-18T14:59:44.829Z,4.45
2022-10-18T15:02:19.485Z,4.60
2022-10-18T15:04:59.115Z,4.47
2022-10-18T15:07:30.927Z,4.55
2022-10-18T15:10:02.680Z,4.93
2022-10-18T15:12:37.061Z,4.70
2022-10-18T15:15:21.181Z,5.82
2022-10-18T15:17:50.720Z,5.97
2022-10-18T15:20:25.527Z,6.07
2022-10-18T15:22:54.421Z,6.05
2022-10-18T15:25:30.802Z,7.28
2022-10-18T15:28:04.623Z,7.78
2022-10-18T15:30:41.403Z,5.80
2022-10-18T15:33:19.598Z,6.40
2022-10-18T15:35:51.863Z,5.60
2022-10-18T15:38:27.787Z,5.70
2022-10-18T15:40:56.824Z,5.32
2022-10-18T15:43:43.420Z,5.30
2022-10-18T15:46:31.948Z,5.63
2022-10-18T15:49:38.331Z,5.72
2022-10-18T15:52:37.451Z,5.80
2022-10-18T15:55:45.410Z,7.70
2022-10-18T15:58:20.762Z,9.20
2022-10-18T16:00:53.252Z,9.23
2022-10-18T16:03:27.141Z,7.65
2022-10-18T16:06:00.170Z,6.75
2022-10-18T16:08:30.533Z,6.90
2022-10-18T16:11:01.475Z,7.30
2022-10-18T16:13:29.993Z,7.30
2022-10-18T16:16:05.751Z,7.20
2022-10-18T16:18:35.301Z,7.50
2022-10-18T16:21:04.465Z,7.68
2022-10-18T16:23:34.652Z,9.10
2022-10-18T16:26:04.598Z,16.40
2022-10-18T16:28:33.284Z,16.83
2022-10-18T16:31:06.870Z,16.48
2022-10-18T16:33:36.903Z,17.30
2022-10-18T16:36:05.771Z,18.73
2022-10-18T16:38:37.879Z,17.40
2022-10-18T16:41:09.391Z,16.73
2022-10-18T16:43:39.851Z,20.98
2022-10-18T16:46:17.080Z,19.85
2022-10-18T16:48:46.585Z,19.52
2022-10-18T16:51:18.544Z,20.75
2022-10-18T16:53:53.426Z,18.00
2022-10-18T16:56:26.396Z,16.17
2022-10-18T16:58:55.575Z,15.25
2022-10-18T17:01:28.523Z,13.48
2022-10-18T17:03:57.476Z,15.27
2022-10-18T17:06:29.328Z,15.60
2022-10-18T17:11:28.535Z,15.75
2022-10-18T17:14:02.602Z,14.23
2022-10-18T17:16:33.590Z,11.50
2022-10-18T17:19:07.947Z,9.93
2022-10-18T17:21:37.134Z,9.60
2022-10-18T17:24:06.291Z,11.25
2022-10-18T17:26:35.249Z,10.52
2022-10-18T17:29:06.397Z,10.35
2022-10-18T17:31:39.941Z,15.15
2022-10-18T17:34:10.755Z,16.50
2022-10-18T17:36:40.619Z,14.25
2022-10-18T17:39:09.596Z,14.38
2022-10-18T17:41:41.095Z,13.02
2022-10-18T17:44:09.849Z,12.48
2022-10-18T17:46:45.872Z,13.65
2022-10-18T17:49:17.105Z,14.27
2022-10-18T17:51:49.036Z,17.00
2022-10-18T17:54:18.692Z,15.10
2022-10-18T17:56:52.338Z,16.30
2022-10-18T17:59:24.905Z,18.10
2022-10-18T18:01:55.143Z,19.80
2022-10-18T18:04:27.715Z,22.38
2022-10-18T18:07:04.695Z,30.88
2022-10-18T18:09:33.196Z,30.58
2022-10-18T18:12:04.432Z,30.27
2022-10-18T18:14:34.346Z,29.73
2022-10-18T18:17:05.601Z,28.92
2022-10-18T18:22:05.717Z,30.17
2022-10-18T18:24:38.138Z,29.45
2022-10-18T18:27:06.542Z,28.98
2022-10-18T18:29:35.593Z,29.60
2022-10-18T18:32:05.307Z,30.60
2022-10-18T18:34:41.884Z,29.30
2022-10-18T18:37:15.575Z,29.45
2022-10-18T18:39:45.878Z,28.70
2022-10-18T18:42:17.836Z,30.13
2022-10-18T18:47:27.429Z,29.92
2022-10-18T18:50:03.976Z,30.35
2022-10-18T18:52:39.063Z,28.60
2022-10-18T18:55:10.941Z,28.15
2022-10-18T19:00:16.096Z,29.20
2022-10-18T19:02:50.027Z,28.33
2022-10-18T19:05:25.643Z,27.67
2022-10-18T19:07:54.504Z,27.40
2022-10-18T19:10:23.438Z,27.52
2022-10-18T19:12:51.583Z,27.35
2022-10-18T19:15:21.812Z,28.02
2022-10-18T19:17:52.105Z,27.58
2022-10-18T19:20:20.926Z,27.58
2022-10-18T19:22:49.773Z,27.83
2022-10-18T19:25:23.371Z,27.30
2022-10-18T19:27:54.924Z,28.52
2022-10-18T19:30:25.827Z,28.02
2022-10-18T19:33:04.315Z,27.60
2022-10-18T19:35:32.497Z,27.50
2022-10-18T19:38:03.667Z,28.15
2022-10-18T19:40:32.359Z,28.90
2022-10-18T19:43:03.428Z,29.42
2022-10-18T19:45:32.392Z,29.47
2022-10-18T19:48:04.552Z,29.50
2022-10-18T19:50:39.771Z,28.58
2022-10-18T19:53:11.474Z,27.88
2022-10-18T19:55:43.435Z,28.13
2022-10-18T19:58:11.963Z,28.15
2022-10-18T20:00:46.833Z,29.48
2022-10-18T20:03:17.565Z,29.60
2022-10-18T20:05:45.619Z,28.90
2022-10-18T20:08:13.862Z,29.15
2022-10-18T20:10:45.738Z,28.27
2022-10-18T20:13:14.900Z,28.43
2022-10-18T20:15:43.563Z,29.13
2022-10-18T20:18:11.831Z,29.45
2022-10-18T20:20:48.279Z,29.73
2022-10-18T20:23:22.752Z,29.83
2022-10-18T20:26:00.213Z,29.98
2022-10-18T20:28:29.648Z,29.38
2022-10-18T20:31:03.058Z,30.13
2022-10-18T20:33:32.727Z,30.27
2022-10-18T20:36:07.335Z,30.20
2022-10-18T20:38:40.943Z,29.83
2022-10-18T20:41:12.172Z,28.67
2022-10-18T20:43:42.087Z,30.58
2022-10-18T20:46:11.539Z,32.70
2022-10-18T20:48:43.280Z,33.63
2022-10-18T20:51:14.131Z,33.40
2022-10-18T20:53:42.938Z,34.25
2022-10-18T20:56:13.628Z,34.90
2022-10-18T20:58:43.419Z,34.40
2022-10-18T21:01:14.795Z,35.45
2022-10-18T21:03:45.546Z,36.50
2022-10-18T21:06:18.415Z,35.15
2022-10-18T21:08:55.800Z,35.07
2022-10-18T21:11:28.137Z,34.70
2022-10-18T21:14:00.210Z,34.20
2022-10-18T21:16:28.716Z,35.25
2022-10-18T21:19:02.157Z,34.47
2022-10-18T21:21:35.625Z,34.45
2022-10-18T21:24:07.140Z,35.22
2022-10-18T21:26:36.896Z,34.33
2022-10-18T21:29:09.259Z,34.63
2022-10-18T21:31:41.189Z,34.65
2022-10-18T21:34:20.324Z,35.00
2022-10-18T21:36:52.225Z,35.38
2022-10-18T21:39:25.829Z,34.50
2022-10-18T21:41:56.526Z,35.10
2022-10-18T21:44:26.557Z,36.28
2022-10-18T21:46:57.124Z,36.65
2022-10-18T21:49:28.070Z,37.47
2022-10-18T21:51:58.408Z,36.63
2022-10-18T21:54:28.115Z,36.20
2022-10-18T21:56:56.276Z,36.20
2022-10-18T21:59:25.643Z,35.00
2022-10-18T22:01:53.941Z,36.40
2022-10-18T22:04:24.993Z,36.17
2022-10-18T22:06:53.297Z,34.33
2022-10-18T22:09:25.618Z,34.22
2022-10-18T22:12:00.156Z,33.67
2022-10-18T22:14:28.436Z,32.70
2022-10-18T22:17:00.123Z,32.45
2022-10-18T22:19:28.792Z,33.38
2022-10-18T22:21:58.751Z,32.08
2022-10-18T22:24:29.103Z,33.50
2022-10-18T22:26:57.602Z,32.97
2022-10-18T22:29:29.927Z,31.15
2022-10-18T22:31:59.408Z,31.27
2022-10-18T22:34:32.640Z,30.58
2022-10-18T22:37:01.219Z,31.27
2022-10-18T22:39:35.331Z,29.80
2022-10-18T22:42:08.295Z,30.48
2022-10-18T22:44:40.037Z,30.60
2022-10-18T22:47:09.372Z,30.88
2022-10-18T22:49:40.240Z,30.52
2022-10-18T22:52:10.317Z,29.73
2022-10-18T22:54:47.731Z,31.42
2022-10-18T22:57:15.863Z,31.95
2022-10-18T22:59:49.690Z,30.92
2022-10-18T23:02:18.122Z,30.95
2022-10-18T23:04:46.368Z,29.05
2022-10-18T23:07:16.303Z,28.40
2022-10-18T23:09:49.717Z,28.20
2022-10-18T23:12:18.209Z,28.98
2022-10-18T23:14:46.391Z,29.02
2022-10-18T23:17:14.999Z,27.67
2022-10-18T23:19:43.432Z,27.88
2022-10-18T23:22:11.874Z,28.65
2022-10-18T23:24:40.651Z,27.75
2022-10-18T23:27:10.065Z,28.00
2022-10-18T23:29:42.315Z,27.27
2022-10-18T23:32:10.604Z,25.80
2022-10-18T23:34:38.675Z,27.00
2022-10-18T23:37:07.314Z,26.35
2022-10-18T23:39:38.141Z,25.10
2022-10-18T23:42:06.925Z,25.38
2022-10-18T23:44:36.663Z,25.10
2022-10-18T23:47:05.156Z,24.98
2022-10-18T23:49:36.074Z,25.85
2022-10-18T23:52:04.932Z,25.77
2022-10-18T23:54:35.060Z,25.80
2022-10-18T23:57:03.553Z,25.58
2022-10-18T23:59:37.421Z,26.80
